LPPT/LIS METAR and TAF weather

Enter ICAO airport designator
Station Type Date Time Source
LPPT METAR 2020/07/15 08:00 UTC NOAA

LPPT 150800Z 05006KT 020V080 CAVOK 22/16 Q1013


Station Type Date Time Source
LPPT Decoded METAR 2020/07/15 08:00 UTC NOAA

Lisboa / Portela, Portugal (LPPT) 38-46N 009-08W 123M
Jul 15, 2020 - 04:00 AM EDT / 2020.07.15 0800 UTC
Wind: from the NE (050 degrees) at 7 MPH (6 KT) (direction variable):0
Visibility: greater than 7 mile(s):0
Temperature: 71 F (22 C)
Dew Point: 60 F (16 C)
Relative Humidity: 68%
Pressure (altimeter): 29.91 in. Hg (1013 hPa)
ob: LPPT 150800Z 05006KT 020V080 CAVOK 22/16 Q1013
cycle: 8

Station Type Date Time Source
LPPT TAF 2020/07/15 06:18 UTC NOAA

TAF LPPT 150500Z 1506/1612 35012KT CAVOK
BECMG 1506/1508 06007KT
BECMG 1510/1512 VRB05KT
BECMG 1512/1514 23010KT
BECMG 1515/1517 31012KT
BECMG 1521/1524 34008KT
BECMG 1606/1609 09005KT

Example: see airport list